首页
METAR-TAF:

METAR-TAF

机场 :

Dinwiddie County Airport

彼得斯堡, 弗吉尼亚州, 美国

纬度: 37-11N, 经度: 077-31W, 海拔: 59米

当前天气观测

该预报发布于23分钟前的13:55 UTC
风速5节,风向东北
温度 24°C
湿度 89%
气压 1018 hPa
能見度: 6.4公里
多云层高于1000英尺
阴天层高于1800英尺
小雨

METAR: KPTB 201355Z AUTO 04005KT 4SM -RA BKN010 OVC018 24/22 A3006 RMK AO2 P0002 T02350223

时间: 10:18 (14:18 UTC)


TAF: 丢失

超过4000个机场的气象观测和天气预报(METAR&TAF报告)。

可查询的气象台以黄色和红色小点在地图上表示。

将鼠标移到小点上方,可查看气象台名称。

然后点击查看天气观测和预报。

如需切换地图:点击带黑十字的绿色按钮放大地图;点击带横线的绿色按钮缩小地图;或者点击绿色箭头查看邻近地区的地图。


METAR-TAF: